sensor_id;sensor_type;location;lat;lon;timestamp;P1;durP1;ratioP1;P2;durP2;ratioP2
15240;SDS011;7723;52.170;9.978;2023-02-18T00:01:26;5.05;;;1.15;;
15240;SDS011;7723;52.170;9.978;2023-02-18T00:03:54;4.53;;;0.80;;
15240;SDS011;7723;52.170;9.978;2023-02-18T00:06:23;5.30;;;1.27;;
15240;SDS011;7723;52.170;9.978;2023-02-18T00:08:51;3.90;;;1.38;;
15240;SDS011;7723;52.170;9.978;2023-02-18T00:11:21;3.90;;;1.00;;
15240;SDS011;7723;52.170;9.978;2023-02-18T00:13:49;7.93;;;1.33;;
15240;SDS011;7723;52.170;9.978;2023-02-18T00:16:16;3.15;;;1.00;;
15240;SDS011;7723;52.170;9.978;2023-02-18T00:18:44;4.85;;;0.90;;
15240;SDS011;7723;52.170;9.978;2023-02-18T00:21:11;3.83;;;0.98;;
15240;SDS011;7723;52.170;9.978;2023-02-18T00:23:38;5.35;;;1.10;;
15240;SDS011;7723;52.170;9.978;2023-02-18T00:26:06;2.00;;;0.80;;
15240;SDS011;7723;52.170;9.978;2023-02-18T00:28:37;1.95;;;0.80;;
15240;SDS011;7723;52.170;9.978;2023-02-18T00:31:05;5.10;;;0.70;;
15240;SDS011;7723;52.170;9.978;2023-02-18T00:33:33;3.38;;;1.20;;
15240;SDS011;7723;52.170;9.978;2023-02-18T00:36:00;2.72;;;0.73;;
15240;SDS011;7723;52.170;9.978;2023-02-18T00:38:29;1.67;;;0.70;;
15240;SDS011;7723;52.170;9.978;2023-02-18T00:40:56;5.22;;;0.85;;
15240;SDS011;7723;52.170;9.978;2023-02-18T00:43:24;6.88;;;1.02;;
15240;SDS011;7723;52.170;9.978;2023-02-18T00:45:53;2.92;;;1.10;;
15240;SDS011;7723;52.170;9.978;2023-02-18T00:48:21;3.80;;;0.80;;
15240;SDS011;7723;52.170;9.978;2023-02-18T00:50:48;4.07;;;1.10;;
15240;SDS011;7723;52.170;9.978;2023-02-18T00:53:15;5.35;;;0.90;;
15240;SDS011;7723;52.170;9.978;2023-02-18T00:55:43;6.13;;;1.50;;
15240;SDS011;7723;52.170;9.978;2023-02-18T00:58:12;5.00;;;0.90;;
15240;SDS011;7723;52.170;9.978;2023-02-18T01:00:39;2.20;;;0.73;;
15240;SDS011;7723;52.170;9.978;2023-02-18T01:03:08;3.72;;;1.40;;
15240;SDS011;7723;52.170;9.978;2023-02-18T01:05:35;4.88;;;1.10;;
15240;SDS011;7723;52.170;9.978;2023-02-18T01:08:03;2.92;;;0.88;;
15240;SDS011;7723;52.170;9.978;2023-02-18T01:10:32;2.35;;;0.70;;
15240;SDS011;7723;52.170;9.978;2023-02-18T01:12:59;5.90;;;1.10;;
15240;SDS011;7723;52.170;9.978;2023-02-18T01:15:28;5.60;;;1.42;;
15240;SDS011;7723;52.170;9.978;2023-02-18T01:17:55;4.05;;;0.85;;
15240;SDS011;7723;52.170;9.978;2023-02-18T01:20:24;5.22;;;1.02;;
15240;SDS011;7723;52.170;9.978;2023-02-18T01:22:51;2.95;;;0.88;;
15240;SDS011;7723;52.170;9.978;2023-02-18T01:25:18;2.58;;;1.25;;
15240;SDS011;7723;52.170;9.978;2023-02-18T01:27:45;2.40;;;1.00;;
15240;SDS011;7723;52.170;9.978;2023-02-18T01:30:13;3.30;;;0.90;;
15240;SDS011;7723;52.170;9.978;2023-02-18T01:32:43;8.43;;;1.58;;
15240;SDS011;7723;52.170;9.978;2023-02-18T01:35:11;5.45;;;1.13;;
15240;SDS011;7723;52.170;9.978;2023-02-18T01:37:45;4.35;;;1.13;;
15240;SDS011;7723;52.170;9.978;2023-02-18T01:40:14;3.05;;;1.10;;
15240;SDS011;7723;52.170;9.978;2023-02-18T01:42:43;4.25;;;1.17;;
15240;SDS011;7723;52.170;9.978;2023-02-18T01:48:16;4.60;;;1.00;;
15240;SDS011;7723;52.170;9.978;2023-02-18T01:50:48;4.55;;;1.08;;
15240;SDS011;7723;52.170;9.978;2023-02-18T01:53:19;3.53;;;1.13;;
15240;SDS011;7723;52.170;9.978;2023-02-18T01:55:52;4.32;;;1.60;;
15240;SDS011;7723;52.170;9.978;2023-02-18T01:58:20;3.88;;;1.88;;
15240;SDS011;7723;52.170;9.978;2023-02-18T02:00:48;3.15;;;1.10;;
15240;SDS011;7723;52.170;9.978;2023-02-18T02:03:15;5.43;;;1.40;;
15240;SDS011;7723;52.170;9.978;2023-02-18T02:05:42;5.72;;;1.60;;
15240;SDS011;7723;52.170;9.978;2023-02-18T02:08:09;5.32;;;1.83;;
15240;SDS011;7723;52.170;9.978;2023-02-18T02:10:41;7.00;;;1.65;;
15240;SDS011;7723;52.170;9.978;2023-02-18T02:13:23;6.75;;;1.35;;
15240;SDS011;7723;52.170;9.978;2023-02-18T02:16:00;5.55;;;1.30;;
15240;SDS011;7723;52.170;9.978;2023-02-18T02:18:35;4.63;;;1.25;;
15240;SDS011;7723;52.170;9.978;2023-02-18T02:21:22;7.07;;;1.38;;
15240;SDS011;7723;52.170;9.978;2023-02-18T02:24:23;3.33;;;1.75;;
15240;SDS011;7723;52.170;9.978;2023-02-18T02:27:09;9.43;;;1.50;;
15240;SDS011;7723;52.170;9.978;2023-02-18T02:32:44;7.28;;;1.50;;
15240;SDS011;7723;52.170;9.978;2023-02-18T02:35:41;4.60;;;1.60;;
15240;SDS011;7723;52.170;9.978;2023-02-18T02:38:12;10.15;;;2.88;;
15240;SDS011;7723;52.170;9.978;2023-02-18T02:40:45;8.27;;;2.08;;
15240;SDS011;7723;52.170;9.978;2023-02-18T02:43:17;9.48;;;3.13;;
15240;SDS011;7723;52.170;9.978;2023-02-18T02:45:53;9.05;;;2.10;;
15240;SDS011;7723;52.170;9.978;2023-02-18T02:48:27;11.82;;;3.35;;
15240;SDS011;7723;52.170;9.978;2023-02-18T02:51:06;5.50;;;2.28;;
15240;SDS011;7723;52.170;9.978;2023-02-18T02:53:39;10.95;;;2.90;;
15240;SDS011;7723;52.170;9.978;2023-02-18T02:56:09;7.38;;;2.15;;
15240;SDS011;7723;52.170;9.978;2023-02-18T02:58:39;10.50;;;2.75;;
15240;SDS011;7723;52.170;9.978;2023-02-18T03:01:14;8.70;;;3.20;;
15240;SDS011;7723;52.170;9.978;2023-02-18T03:03:56;8.15;;;3.30;;
15240;SDS011;7723;52.170;9.978;2023-02-18T03:06:52;6.63;;;3.10;;
15240;SDS011;7723;52.170;9.978;2023-02-18T03:09:37;9.02;;;3.10;;
15240;SDS011;7723;52.170;9.978;2023-02-18T03:12:13;8.15;;;3.40;;
15240;SDS011;7723;52.170;9.978;2023-02-18T03:14:46;7.22;;;3.30;;
15240;SDS011;7723;52.170;9.978;2023-02-18T03:17:24;9.27;;;3.08;;
15240;SDS011;7723;52.170;9.978;2023-02-18T03:19:55;7.97;;;3.55;;
15240;SDS011;7723;52.170;9.978;2023-02-18T03:22:30;13.57;;;4.60;;
15240;SDS011;7723;52.170;9.978;2023-02-18T03:25:01;13.57;;;4.38;;
15240;SDS011;7723;52.170;9.978;2023-02-18T03:27:31;10.27;;;3.95;;
15240;SDS011;7723;52.170;9.978;2023-02-18T03:30:04;7.53;;;3.20;;
15240;SDS011;7723;52.170;9.978;2023-02-18T03:32:37;5.82;;;3.50;;
15240;SDS011;7723;52.170;9.978;2023-02-18T03:35:05;9.60;;;3.53;;
15240;SDS011;7723;52.170;9.978;2023-02-18T03:37:36;6.57;;;3.03;;
15240;SDS011;7723;52.170;9.978;2023-02-18T03:40:08;8.65;;;3.10;;
15240;SDS011;7723;52.170;9.978;2023-02-18T03:42:36;11.88;;;4.22;;
15240;SDS011;7723;52.170;9.978;2023-02-18T03:45:04;6.85;;;3.15;;
15240;SDS011;7723;52.170;9.978;2023-02-18T03:47:31;7.70;;;3.10;;
15240;SDS011;7723;52.170;9.978;2023-02-18T03:49:58;6.75;;;3.47;;
15240;SDS011;7723;52.170;9.978;2023-02-18T03:52:26;6.80;;;3.55;;
15240;SDS011;7723;52.170;9.978;2023-02-18T03:54:54;7.28;;;3.55;;
15240;SDS011;7723;52.170;9.978;2023-02-18T03:57:21;13.63;;;3.85;;
15240;SDS011;7723;52.170;9.978;2023-02-18T03:59:48;8.70;;;3.80;;
15240;SDS011;7723;52.170;9.978;2023-02-18T04:02:16;10.48;;;4.22;;
15240;SDS011;7723;52.170;9.978;2023-02-18T04:04:43;12.63;;;4.68;;
15240;SDS011;7723;52.170;9.978;2023-02-18T04:07:10;13.90;;;5.30;;
15240;SDS011;7723;52.170;9.978;2023-02-18T04:09:37;11.00;;;4.43;;
15240;SDS011;7723;52.170;9.978;2023-02-18T04:12:06;15.20;;;5.10;;
15240;SDS011;7723;52.170;9.978;2023-02-18T04:14:33;10.95;;;4.88;;
15240;SDS011;7723;52.170;9.978;2023-02-18T04:17:00;9.93;;;5.07;;
15240;SDS011;7723;52.170;9.978;2023-02-18T04:19:27;12.65;;;5.13;;
15240;SDS011;7723;52.170;9.978;2023-02-18T04:21:54;11.40;;;5.28;;
15240;SDS011;7723;52.170;9.978;2023-02-18T04:24:21;15.57;;;6.03;;
15240;SDS011;7723;52.170;9.978;2023-02-18T04:26:49;13.57;;;5.70;;
15240;SDS011;7723;52.170;9.978;2023-02-18T04:29:17;12.05;;;5.68;;
15240;SDS011;7723;52.170;9.978;2023-02-18T04:31:45;15.02;;;6.50;;
15240;SDS011;7723;52.170;9.978;2023-02-18T04:34:12;13.45;;;6.90;;
15240;SDS011;7723;52.170;9.978;2023-02-18T04:36:39;14.23;;;6.82;;
15240;SDS011;7723;52.170;9.978;2023-02-18T04:39:06;15.50;;;8.32;;
15240;SDS011;7723;52.170;9.978;2023-02-18T04:41:33;17.10;;;7.70;;
15240;SDS011;7723;52.170;9.978;2023-02-18T04:44:01;21.27;;;7.97;;
15240;SDS011;7723;52.170;9.978;2023-02-18T04:46:29;22.95;;;8.73;;
15240;SDS011;7723;52.170;9.978;2023-02-18T04:48:57;16.88;;;8.45;;
15240;SDS011;7723;52.170;9.978;2023-02-18T04:51:24;16.30;;;8.85;;
15240;SDS011;7723;52.170;9.978;2023-02-18T04:53:51;18.23;;;8.93;;
15240;SDS011;7723;52.170;9.978;2023-02-18T04:56:18;22.48;;;9.00;;
15240;SDS011;7723;52.170;9.978;2023-02-18T04:58:45;19.05;;;9.60;;
15240;SDS011;7723;52.170;9.978;2023-02-18T05:01:13;15.60;;;8.82;;
15240;SDS011;7723;52.170;9.978;2023-02-18T05:03:41;21.73;;;9.30;;
15240;SDS011;7723;52.170;9.978;2023-02-18T05:06:10;18.33;;;9.40;;
15240;SDS011;7723;52.170;9.978;2023-02-18T05:08:37;21.83;;;10.45;;
15240;SDS011;7723;52.170;9.978;2023-02-18T05:11:05;19.20;;;9.73;;
15240;SDS011;7723;52.170;9.978;2023-02-18T05:13:32;20.52;;;10.90;;
15240;SDS011;7723;52.170;9.978;2023-02-18T05:16:00;20.67;;;10.30;;
15240;SDS011;7723;52.170;9.978;2023-02-18T05:18:27;21.33;;;10.13;;
15240;SDS011;7723;52.170;9.978;2023-02-18T05:20:55;21.95;;;10.57;;
15240;SDS011;7723;52.170;9.978;2023-02-18T05:23:23;21.45;;;10.20;;
15240;SDS011;7723;52.170;9.978;2023-02-18T05:25:50;23.15;;;9.85;;
15240;SDS011;7723;52.170;9.978;2023-02-18T05:28:18;28.13;;;12.35;;
15240;SDS011;7723;52.170;9.978;2023-02-18T05:30:45;24.13;;;11.20;;
15240;SDS011;7723;52.170;9.978;2023-02-18T05:33:13;22.38;;;10.95;;
15240;SDS011;7723;52.170;9.978;2023-02-18T05:35:40;22.70;;;11.30;;
15240;SDS011;7723;52.170;9.978;2023-02-18T05:38:09;25.85;;;13.10;;
15240;SDS011;7723;52.170;9.978;2023-02-18T05:40:36;29.85;;;11.73;;
15240;SDS011;7723;52.170;9.978;2023-02-18T05:43:03;29.02;;;12.75;;
15240;SDS011;7723;52.170;9.978;2023-02-18T05:45:30;29.45;;;12.55;;
15240;SDS011;7723;52.170;9.978;2023-02-18T05:47:57;22.42;;;12.25;;
15240;SDS011;7723;52.170;9.978;2023-02-18T05:50:25;20.85;;;11.45;;
15240;SDS011;7723;52.170;9.978;2023-02-18T05:52:52;23.92;;;11.35;;
15240;SDS011;7723;52.170;9.978;2023-02-18T05:55:20;27.95;;;12.10;;
15240;SDS011;7723;52.170;9.978;2023-02-18T05:57:50;22.98;;;12.23;;
15240;SDS011;7723;52.170;9.978;2023-02-18T06:00:17;26.15;;;11.80;;
15240;SDS011;7723;52.170;9.978;2023-02-18T06:02:45;26.23;;;12.40;;
15240;SDS011;7723;52.170;9.978;2023-02-18T06:05:12;21.92;;;11.63;;
15240;SDS011;7723;52.170;9.978;2023-02-18T06:07:39;21.05;;;10.90;;
15240;SDS011;7723;52.170;9.978;2023-02-18T06:10:06;21.48;;;10.13;;
15240;SDS011;7723;52.170;9.978;2023-02-18T06:12:36;17.52;;;9.23;;
15240;SDS011;7723;52.170;9.978;2023-02-18T06:15:03;19.58;;;10.73;;
15240;SDS011;7723;52.170;9.978;2023-02-18T06:17:31;21.40;;;10.20;;
15240;SDS011;7723;52.170;9.978;2023-02-18T06:19:58;20.45;;;8.18;;
15240;SDS011;7723;52.170;9.978;2023-02-18T06:22:25;15.18;;;7.45;;
15240;SDS011;7723;52.170;9.978;2023-02-18T06:24:52;15.50;;;8.00;;
15240;SDS011;7723;52.170;9.978;2023-02-18T06:27:19;19.70;;;7.95;;
15240;SDS011;7723;52.170;9.978;2023-02-18T06:29:48;15.23;;;8.05;;
15240;SDS011;7723;52.170;9.978;2023-02-18T06:32:15;14.32;;;7.30;;
15240;SDS011;7723;52.170;9.978;2023-02-18T06:34:42;14.85;;;8.10;;
15240;SDS011;7723;52.170;9.978;2023-02-18T06:37:09;14.57;;;7.70;;
15240;SDS011;7723;52.170;9.978;2023-02-18T06:39:37;15.60;;;7.53;;
15240;SDS011;7723;52.170;9.978;2023-02-18T06:42:04;17.38;;;8.57;;
15240;SDS011;7723;52.170;9.978;2023-02-18T06:44:33;14.65;;;7.25;;
15240;SDS011;7723;52.170;9.978;2023-02-18T06:47:02;17.73;;;8.10;;
15240;SDS011;7723;52.170;9.978;2023-02-18T06:49:29;15.13;;;6.93;;
15240;SDS011;7723;52.170;9.978;2023-02-18T06:51:57;13.38;;;7.18;;
15240;SDS011;7723;52.170;9.978;2023-02-18T06:54:24;15.13;;;7.25;;
15240;SDS011;7723;52.170;9.978;2023-02-18T06:56:51;14.40;;;7.57;;
15240;SDS011;7723;52.170;9.978;2023-02-18T06:59:18;18.23;;;8.40;;
15240;SDS011;7723;52.170;9.978;2023-02-18T07:01:45;17.77;;;8.10;;
15240;SDS011;7723;52.170;9.978;2023-02-18T07:04:14;16.75;;;8.25;;
15240;SDS011;7723;52.170;9.978;2023-02-18T07:06:41;16.88;;;8.02;;
15240;SDS011;7723;52.170;9.978;2023-02-18T07:09:08;13.63;;;7.15;;
15240;SDS011;7723;52.170;9.978;2023-02-18T07:11:35;15.88;;;7.47;;
15240;SDS011;7723;52.170;9.978;2023-02-18T07:14:02;14.93;;;6.85;;
15240;SDS011;7723;52.170;9.978;2023-02-18T07:16:30;16.00;;;7.00;;
15240;SDS011;7723;52.170;9.978;2023-02-18T07:18:57;15.75;;;7.93;;
15240;SDS011;7723;52.170;9.978;2023-02-18T07:21:26;12.90;;;7.38;;
15240;SDS011;7723;52.170;9.978;2023-02-18T07:23:53;14.65;;;7.40;;
15240;SDS011;7723;52.170;9.978;2023-02-18T07:26:20;11.30;;;6.43;;
15240;SDS011;7723;52.170;9.978;2023-02-18T07:28:47;12.95;;;7.05;;
15240;SDS011;7723;52.170;9.978;2023-02-18T07:31:14;11.30;;;6.35;;
15240;SDS011;7723;52.170;9.978;2023-02-18T07:33:42;10.55;;;5.53;;
15240;SDS011;7723;52.170;9.978;2023-02-18T07:36:09;8.27;;;4.18;;
15240;SDS011;7723;52.170;9.978;2023-02-18T07:38:38;8.38;;;4.60;;
15240;SDS011;7723;52.170;9.978;2023-02-18T07:41:05;9.45;;;4.57;;
15240;SDS011;7723;52.170;9.978;2023-02-18T07:43:32;7.85;;;3.88;;
15240;SDS011;7723;52.170;9.978;2023-02-18T07:45:59;6.20;;;3.90;;
15240;SDS011;7723;52.170;9.978;2023-02-18T07:48:31;6.45;;;3.60;;
15240;SDS011;7723;52.170;9.978;2023-02-18T07:50:58;5.07;;;3.13;;
15240;SDS011;7723;52.170;9.978;2023-02-18T07:53:25;6.72;;;3.20;;
15240;SDS011;7723;52.170;9.978;2023-02-18T07:55:54;5.82;;;3.08;;
15240;SDS011;7723;52.170;9.978;2023-02-18T07:58:25;4.47;;;2.60;;
15240;SDS011;7723;52.170;9.978;2023-02-18T08:00:54;4.82;;;2.20;;
15240;SDS011;7723;52.170;9.978;2023-02-18T08:03:25;4.10;;;2.50;;
15240;SDS011;7723;52.170;9.978;2023-02-18T08:05:54;5.40;;;2.80;;
15240;SDS011;7723;52.170;9.978;2023-02-18T08:08:22;2.92;;;1.50;;
15240;SDS011;7723;52.170;9.978;2023-02-18T08:10:51;1.70;;;1.20;;
15240;SDS011;7723;52.170;9.978;2023-02-18T08:13:21;2.72;;;1.42;;
15240;SDS011;7723;52.170;9.978;2023-02-18T08:15:48;1.98;;;1.20;;
15240;SDS011;7723;52.170;9.978;2023-02-18T08:18:18;1.67;;;1.05;;
15240;SDS011;7723;52.170;9.978;2023-02-18T08:20:48;2.25;;;0.90;;
15240;SDS011;7723;52.170;9.978;2023-02-18T08:23:16;1.25;;;0.70;;
15240;SDS011;7723;52.170;9.978;2023-02-18T08:25:44;1.38;;;0.65;;
15240;SDS011;7723;52.170;9.978;2023-02-18T08:28:13;0.90;;;0.60;;
15240;SDS011;7723;52.170;9.978;2023-02-18T08:30:43;0.80;;;0.47;;
15240;SDS011;7723;52.170;9.978;2023-02-18T08:33:10;0.82;;;0.57;;
15240;SDS011;7723;52.170;9.978;2023-02-18T08:35:38;0.47;;;0.40;;
15240;SDS011;7723;52.170;9.978;2023-02-18T08:38:05;0.50;;;0.40;;
15240;SDS011;7723;52.170;9.978;2023-02-18T08:40:32;0.90;;;0.85;;
15240;SDS011;7723;52.170;9.978;2023-02-18T08:42:59;0.63;;;0.40;;
15240;SDS011;7723;52.170;9.978;2023-02-18T08:45:28;0.47;;;0.30;;
15240;SDS011;7723;52.170;9.978;2023-02-18T08:47:55;0.68;;;0.40;;
15240;SDS011;7723;52.170;9.978;2023-02-18T08:50:22;0.30;;;0.30;;
15240;SDS011;7723;52.170;9.978;2023-02-18T08:52:50;0.40;;;0.38;;
15240;SDS011;7723;52.170;9.978;2023-02-18T08:55:18;0.20;;;0.20;;
15240;SDS011;7723;52.170;9.978;2023-02-18T08:57:45;0.57;;;0.55;;
15240;SDS011;7723;52.170;9.978;2023-02-18T09:00:15;0.50;;;0.30;;
15240;SDS011;7723;52.170;9.978;2023-02-18T09:02:44;1.20;;;0.30;;
15240;SDS011;7723;52.170;9.978;2023-02-18T09:05:12;0.28;;;0.25;;
15240;SDS011;7723;52.170;9.978;2023-02-18T09:07:39;1.50;;;0.30;;
15240;SDS011;7723;52.170;9.978;2023-02-18T09:10:07;0.70;;;0.40;;
15240;SDS011;7723;52.170;9.978;2023-02-18T09:12:35;0.20;;;0.20;;
15240;SDS011;7723;52.170;9.978;2023-02-18T09:15:02;0.70;;;0.43;;
15240;SDS011;7723;52.170;9.978;2023-02-18T09:17:30;0.28;;;0.28;;
15240;SDS011;7723;52.170;9.978;2023-02-18T09:19:58;0.47;;;0.35;;
15240;SDS011;7723;52.170;9.978;2023-02-18T09:22:26;0.43;;;0.38;;
15240;SDS011;7723;52.170;9.978;2023-02-18T09:24:53;0.77;;;0.40;;
15240;SDS011;7723;52.170;9.978;2023-02-18T09:27:20;0.40;;;0.25;;
15240;SDS011;7723;52.170;9.978;2023-02-18T09:29:47;0.28;;;0.20;;
15240;SDS011;7723;52.170;9.978;2023-02-18T09:32:15;0.55;;;0.38;;
15240;SDS011;7723;52.170;9.978;2023-02-18T09:34:43;0.20;;;0.20;;
15240;SDS011;7723;52.170;9.978;2023-02-18T09:37:11;0.70;;;0.50;;
15240;SDS011;7723;52.170;9.978;2023-02-18T09:39:40;0.22;;;0.20;;
15240;SDS011;7723;52.170;9.978;2023-02-18T09:42:09;0.70;;;0.20;;
15240;SDS011;7723;52.170;9.978;2023-02-18T09:44:41;0.45;;;0.22;;
15240;SDS011;7723;52.170;9.978;2023-02-18T09:47:12;0.35;;;0.30;;
15240;SDS011;7723;52.170;9.978;2023-02-18T09:49:43;0.50;;;0.30;;
15240;SDS011;7723;52.170;9.978;2023-02-18T09:52:16;0.30;;;0.25;;
15240;SDS011;7723;52.170;9.978;2023-02-18T09:54:47;0.30;;;0.20;;
15240;SDS011;7723;52.170;9.978;2023-02-18T09:57:17;0.50;;;0.32;;
15240;SDS011;7723;52.170;9.978;2023-02-18T09:59:51;0.70;;;0.50;;
15240;SDS011;7723;52.170;9.978;2023-02-18T10:02:24;0.43;;;0.40;;
15240;SDS011;7723;52.170;9.978;2023-02-18T10:04:52;0.68;;;0.50;;
15240;SDS011;7723;52.170;9.978;2023-02-18T10:07:22;0.60;;;0.40;;
15240;SDS011;7723;52.170;9.978;2023-02-18T10:09:53;1.05;;;0.75;;
15240;SDS011;7723;52.170;9.978;2023-02-18T10:12:23;0.80;;;0.43;;
15240;SDS011;7723;52.170;9.978;2023-02-18T10:14:51;1.40;;;1.05;;
15240;SDS011;7723;52.170;9.978;2023-02-18T10:17:21;1.20;;;0.82;;
15240;SDS011;7723;52.170;9.978;2023-02-18T10:19:51;1.10;;;0.80;;
15240;SDS011;7723;52.170;9.978;2023-02-18T10:22:20;2.00;;;0.65;;
15240;SDS011;7723;52.170;9.978;2023-02-18T10:24:51;0.93;;;0.75;;
15240;SDS011;7723;52.170;9.978;2023-02-18T10:27:22;0.90;;;0.80;;
15240;SDS011;7723;52.170;9.978;2023-02-18T10:29:52;0.90;;;0.80;;
15240;SDS011;7723;52.170;9.978;2023-02-18T10:32:22;1.05;;;0.80;;
15240;SDS011;7723;52.170;9.978;2023-02-18T10:34:51;1.67;;;1.40;;
15240;SDS011;7723;52.170;9.978;2023-02-18T10:37:30;1.30;;;1.00;;
15240;SDS011;7723;52.170;9.978;2023-02-18T10:40:11;1.10;;;1.00;;
15240;SDS011;7723;52.170;9.978;2023-02-18T10:42:44;1.38;;;1.00;;
15240;SDS011;7723;52.170;9.978;2023-02-18T10:45:21;1.10;;;0.82;;
15240;SDS011;7723;52.170;9.978;2023-02-18T10:47:57;1.15;;;0.98;;
15240;SDS011;7723;52.170;9.978;2023-02-18T10:50:36;1.60;;;0.98;;
15240;SDS011;7723;52.170;9.978;2023-02-18T10:53:09;0.77;;;0.70;;
15240;SDS011;7723;52.170;9.978;2023-02-18T10:55:40;1.05;;;0.90;;
15240;SDS011;7723;52.170;9.978;2023-02-18T10:58:23;1.75;;;1.08;;
15240;SDS011;7723;52.170;9.978;2023-02-18T11:00:53;1.77;;;1.45;;
15240;SDS011;7723;52.170;9.978;2023-02-18T11:03:20;1.75;;;1.30;;
15240;SDS011;7723;52.170;9.978;2023-02-18T11:05:50;2.53;;;1.10;;
15240;SDS011;7723;52.170;9.978;2023-02-18T11:08:21;3.05;;;1.30;;
15240;SDS011;7723;52.170;9.978;2023-02-18T11:10:50;1.85;;;1.42;;
15240;SDS011;7723;52.170;9.978;2023-02-18T11:13:22;1.88;;;1.30;;
15240;SDS011;7723;52.170;9.978;2023-02-18T11:15:53;1.77;;;1.23;;
15240;SDS011;7723;52.170;9.978;2023-02-18T11:18:27;1.70;;;1.30;;
15240;SDS011;7723;52.170;9.978;2023-02-18T11:21:06;1.77;;;1.58;;
15240;SDS011;7723;52.170;9.978;2023-02-18T11:23:48;1.77;;;1.33;;
15240;SDS011;7723;52.170;9.978;2023-02-18T11:26:17;1.52;;;1.00;;
15240;SDS011;7723;52.170;9.978;2023-02-18T11:28:50;4.03;;;2.08;;
15240;SDS011;7723;52.170;9.978;2023-02-18T11:31:23;4.32;;;2.67;;
15240;SDS011;7723;52.170;9.978;2023-02-18T11:33:53;3.92;;;2.30;;
15240;SDS011;7723;52.170;9.978;2023-02-18T11:36:22;1.55;;;1.27;;
15240;SDS011;7723;52.170;9.978;2023-02-18T11:38:53;4.15;;;2.55;;
15240;SDS011;7723;52.170;9.978;2023-02-18T11:41:28;4.38;;;2.63;;
15240;SDS011;7723;52.170;9.978;2023-02-18T11:43:58;1.75;;;1.00;;
15240;SDS011;7723;52.170;9.978;2023-02-18T11:46:26;1.00;;;0.90;;
15240;SDS011;7723;52.170;9.978;2023-02-18T11:48:54;1.35;;;1.10;;
15240;SDS011;7723;52.170;9.978;2023-02-18T11:51:23;1.20;;;0.98;;
15240;SDS011;7723;52.170;9.978;2023-02-18T11:53:58;2.78;;;1.20;;
15240;SDS011;7723;52.170;9.978;2023-02-18T11:56:27;1.23;;;1.00;;
15240;SDS011;7723;52.170;9.978;2023-02-18T11:58:56;1.10;;;0.98;;
15240;SDS011;7723;52.170;9.978;2023-02-18T12:01:27;1.13;;;0.95;;
15240;SDS011;7723;52.170;9.978;2023-02-18T12:04:05;2.25;;;1.23;;
15240;SDS011;7723;52.170;9.978;2023-02-18T12:06:35;1.23;;;0.93;;
15240;SDS011;7723;52.170;9.978;2023-02-18T12:09:13;1.27;;;1.17;;
15240;SDS011;7723;52.170;9.978;2023-02-18T12:11:51;1.20;;;1.00;;
15240;SDS011;7723;52.170;9.978;2023-02-18T12:14:21;1.88;;;1.02;;
15240;SDS011;7723;52.170;9.978;2023-02-18T12:17:01;2.65;;;1.15;;
15240;SDS011;7723;52.170;9.978;2023-02-18T12:19:46;1.00;;;0.80;;
15240;SDS011;7723;52.170;9.978;2023-02-18T12:22:28;0.80;;;0.77;;
15240;SDS011;7723;52.170;9.978;2023-02-18T12:25:19;1.50;;;1.00;;
15240;SDS011;7723;52.170;9.978;2023-02-18T12:27:54;1.33;;;1.00;;
15240;SDS011;7723;52.170;9.978;2023-02-18T12:30:35;1.02;;;0.75;;
15240;SDS011;7723;52.170;9.978;2023-02-18T12:33:16;0.90;;;0.60;;
15240;SDS011;7723;52.170;9.978;2023-02-18T12:35:53;0.90;;;0.80;;
15240;SDS011;7723;52.170;9.978;2023-02-18T12:38:34;0.60;;;0.50;;
15240;SDS011;7723;52.170;9.978;2023-02-18T12:41:33;1.67;;;1.02;;
15240;SDS011;7723;52.170;9.978;2023-02-18T12:44:12;2.47;;;1.05;;
15240;SDS011;7723;52.170;9.978;2023-02-18T12:46:54;2.25;;;1.23;;
15240;SDS011;7723;52.170;9.978;2023-02-18T12:49:39;1.40;;;0.90;;
15240;SDS011;7723;52.170;9.978;2023-02-18T12:52:18;1.75;;;1.15;;
15240;SDS011;7723;52.170;9.978;2023-02-18T12:55:03;1.63;;;1.00;;
15240;SDS011;7723;52.170;9.978;2023-02-18T12:57:52;1.70;;;1.10;;
15240;SDS011;7723;52.170;9.978;2023-02-18T13:00:32;1.10;;;0.90;;
15240;SDS011;7723;52.170;9.978;2023-02-18T13:03:12;1.25;;;0.80;;
15240;SDS011;7723;52.170;9.978;2023-02-18T13:06:01;1.30;;;1.00;;
15240;SDS011;7723;52.170;9.978;2023-02-18T13:08:40;1.58;;;1.20;;
15240;SDS011;7723;52.170;9.978;2023-02-18T13:11:25;1.95;;;1.27;;
15240;SDS011;7723;52.170;9.978;2023-02-18T13:14:04;1.40;;;1.20;;
15240;SDS011;7723;52.170;9.978;2023-02-18T13:16:38;1.33;;;0.90;;
15240;SDS011;7723;52.170;9.978;2023-02-18T13:19:13;1.63;;;1.08;;
15240;SDS011;7723;52.170;9.978;2023-02-18T13:21:47;1.83;;;0.80;;
15240;SDS011;7723;52.170;9.978;2023-02-18T13:24:17;1.67;;;1.27;;
15240;SDS011;7723;52.170;9.978;2023-02-18T13:26:49;1.73;;;1.30;;
15240;SDS011;7723;52.170;9.978;2023-02-18T13:29:25;1.45;;;0.90;;
15240;SDS011;7723;52.170;9.978;2023-02-18T13:32:00;1.33;;;0.90;;
15240;SDS011;7723;52.170;9.978;2023-02-18T13:34:36;1.23;;;0.95;;
15240;SDS011;7723;52.170;9.978;2023-02-18T13:37:11;2.47;;;1.55;;
15240;SDS011;7723;52.170;9.978;2023-02-18T13:39:47;2.85;;;0.95;;
15240;SDS011;7723;52.170;9.978;2023-02-18T13:42:24;3.28;;;1.55;;
15240;SDS011;7723;52.170;9.978;2023-02-18T13:45:06;1.90;;;1.10;;
15240;SDS011;7723;52.170;9.978;2023-02-18T13:47:50;2.33;;;1.60;;
15240;SDS011;7723;52.170;9.978;2023-02-18T13:50:26;6.75;;;4.32;;
15240;SDS011;7723;52.170;9.978;2023-02-18T13:53:03;2.50;;;1.60;;
15240;SDS011;7723;52.170;9.978;2023-02-18T13:55:49;1.80;;;0.88;;
15240;SDS011;7723;52.170;9.978;2023-02-18T13:58:24;2.95;;;1.38;;
15240;SDS011;7723;52.170;9.978;2023-02-18T14:00:59;0.80;;;0.80;;
15240;SDS011;7723;52.170;9.978;2023-02-18T14:03:34;2.22;;;0.90;;
15240;SDS011;7723;52.170;9.978;2023-02-18T14:06:16;1.60;;;1.20;;
15240;SDS011;7723;52.170;9.978;2023-02-18T14:08:45;1.45;;;1.15;;
15240;SDS011;7723;52.170;9.978;2023-02-18T14:11:22;0.98;;;0.80;;
15240;SDS011;7723;52.170;9.978;2023-02-18T14:14:12;1.10;;;0.95;;
15240;SDS011;7723;52.170;9.978;2023-02-18T14:23:11;1.10;;;0.70;;
15240;SDS011;7723;52.170;9.978;2023-02-18T14:25:57;0.90;;;0.70;;
15240;SDS011;7723;52.170;9.978;2023-02-18T14:28:36;1.60;;;0.65;;
15240;SDS011;7723;52.170;9.978;2023-02-18T14:31:15;0.90;;;0.80;;
15240;SDS011;7723;52.170;9.978;2023-02-18T14:33:52;1.20;;;0.80;;
15240;SDS011;7723;52.170;9.978;2023-02-18T14:36:48;0.80;;;0.60;;
15240;SDS011;7723;52.170;9.978;2023-02-18T14:39:29;0.85;;;0.68;;
15240;SDS011;7723;52.170;9.978;2023-02-18T14:42:09;1.17;;;0.75;;
15240;SDS011;7723;52.170;9.978;2023-02-18T14:44:51;1.38;;;0.77;;
15240;SDS011;7723;52.170;9.978;2023-02-18T14:47:34;0.88;;;0.80;;
15240;SDS011;7723;52.170;9.978;2023-02-18T14:50:15;0.98;;;0.68;;
15240;SDS011;7723;52.170;9.978;2023-02-18T14:52:46;0.80;;;0.70;;
15240;SDS011;7723;52.170;9.978;2023-02-18T14:55:17;1.40;;;0.80;;
15240;SDS011;7723;52.170;9.978;2023-02-18T14:57:49;1.05;;;0.85;;
15240;SDS011;7723;52.170;9.978;2023-02-18T15:00:20;1.23;;;0.90;;
15240;SDS011;7723;52.170;9.978;2023-02-18T15:02:50;1.42;;;0.70;;
15240;SDS011;7723;52.170;9.978;2023-02-18T15:05:20;0.63;;;0.50;;
15240;SDS011;7723;52.170;9.978;2023-02-18T15:07:55;1.88;;;0.77;;
15240;SDS011;7723;52.170;9.978;2023-02-18T15:10:30;1.20;;;1.00;;
15240;SDS011;7723;52.170;9.978;2023-02-18T15:13:04;1.42;;;0.70;;
15240;SDS011;7723;52.170;9.978;2023-02-18T15:15:34;1.00;;;0.90;;
15240;SDS011;7723;52.170;9.978;2023-02-18T15:18:01;1.10;;;0.75;;
15240;SDS011;7723;52.170;9.978;2023-02-18T15:20:32;1.63;;;1.20;;
15240;SDS011;7723;52.170;9.978;2023-02-18T15:23:00;1.63;;;1.08;;
15240;SDS011;7723;52.170;9.978;2023-02-18T15:25:27;2.00;;;1.27;;
15240;SDS011;7723;52.170;9.978;2023-02-18T15:27:55;2.65;;;1.52;;
15240;SDS011;7723;52.170;9.978;2023-02-18T15:30:24;3.85;;;1.38;;
15240;SDS011;7723;52.170;9.978;2023-02-18T15:32:54;3.65;;;2.17;;
15240;SDS011;7723;52.170;9.978;2023-02-18T15:35:24;2.40;;;1.38;;